createdAt,value
2018-11-03T00:00:27.440Z,7.62
2018-11-03T00:02:55.029Z,6.90
2018-11-03T00:05:22.594Z,7.85
2018-11-03T00:07:50.205Z,7.37
2018-11-03T00:10:17.796Z,6.80
2018-11-03T00:12:45.417Z,7.45
2018-11-03T00:15:13.053Z,7.60
2018-11-03T00:17:40.616Z,7.22
2018-11-03T00:20:08.250Z,7.42
2018-11-03T00:22:35.836Z,8.05
2018-11-03T00:25:03.566Z,7.72
2018-11-03T00:27:31.186Z,7.75
2018-11-03T00:32:33.231Z,7.17
2018-11-03T00:35:00.830Z,8.80
2018-11-03T00:37:28.409Z,8.08
2018-11-03T00:39:55.977Z,7.05
2018-11-03T00:42:23.550Z,7.75
2018-11-03T00:44:51.175Z,7.33
2018-11-03T00:47:18.754Z,7.65
2018-11-03T00:49:46.396Z,8.28
2018-11-03T00:54:48.284Z,6.92
2018-11-03T00:57:15.879Z,7.00
2018-11-03T00:59:43.489Z,7.08
2018-11-03T01:02:11.062Z,7.12
2018-11-03T01:04:38.812Z,7.45
2018-11-03T01:07:06.426Z,7.28
2018-11-03T01:09:34.025Z,7.08
2018-11-03T01:12:01.633Z,7.92
2018-11-03T01:14:29.202Z,7.58
2018-11-03T01:16:56.770Z,7.97
2018-11-03T01:19:24.352Z,7.78
2018-11-03T01:21:51.946Z,7.95
2018-11-03T01:24:19.504Z,6.60
2018-11-03T01:26:47.102Z,7.75
2018-11-03T01:29:14.693Z,8.20
2018-11-03T01:31:42.389Z,8.15
2018-11-03T01:34:09.953Z,8.28
2018-11-03T01:36:37.572Z,8.93
2018-11-03T01:39:07.833Z,7.90
2018-11-03T01:41:35.462Z,8.30
2018-11-03T01:44:03.093Z,8.70
2018-11-03T01:46:30.724Z,7.58
2018-11-03T01:48:58.299Z,8.73
2018-11-03T01:51:26.031Z,8.10
2018-11-03T01:53:53.633Z,9.00
2018-11-03T01:56:21.195Z,8.63
2018-11-03T01:58:48.758Z,9.23
2018-11-03T02:01:16.349Z,8.83
2018-11-03T02:03:43.977Z,8.90
2018-11-03T02:06:11.531Z,7.87
2018-11-03T02:08:39.288Z,8.55
2018-11-03T02:11:06.827Z,8.93
2018-11-03T02:13:34.441Z,8.10
2018-11-03T02:16:02.030Z,9.50
2018-11-03T02:18:29.624Z,9.25
2018-11-03T02:20:57.195Z,9.10
2018-11-03T02:23:24.757Z,9.13
2018-11-03T02:25:52.371Z,9.03
2018-11-03T02:28:19.987Z,10.13
2018-11-03T02:30:47.542Z,9.60
2018-11-03T02:33:15.104Z,9.25
2018-11-03T02:35:42.687Z,9.55
2018-11-03T02:38:10.257Z,8.40
2018-11-03T02:40:37.865Z,9.25
2018-11-03T02:43:05.484Z,8.83
2018-11-03T02:45:33.083Z,8.95
2018-11-03T02:48:00.709Z,10.00
2018-11-03T02:50:28.273Z,9.43
2018-11-03T02:52:55.909Z,9.73
2018-11-03T02:55:23.437Z,9.73
2018-11-03T02:57:51.039Z,10.63
2018-11-03T03:00:18.677Z,10.03
2018-11-03T03:02:46.339Z,9.18
2018-11-03T03:05:13.944Z,9.88
2018-11-03T03:07:41.589Z,10.90
2018-11-03T03:10:10.660Z,9.88
2018-11-03T03:12:38.360Z,9.83
2018-11-03T03:15:07.083Z,11.53
2018-11-03T03:17:34.744Z,11.60
2018-11-03T03:20:02.337Z,11.57
2018-11-03T03:22:29.932Z,12.00
2018-11-03T03:24:57.540Z,11.65
2018-11-03T03:27:25.157Z,12.30
2018-11-03T03:29:52.777Z,11.78
2018-11-03T03:32:20.409Z,12.47
2018-11-03T03:34:48.006Z,13.25
2018-11-03T03:37:15.606Z,11.63
2018-11-03T03:39:43.191Z,12.80
2018-11-03T03:42:10.716Z,12.07
2018-11-03T03:44:38.350Z,12.30
2018-11-03T03:47:05.944Z,13.00
2018-11-03T03:49:33.540Z,11.83
2018-11-03T03:52:01.135Z,12.60
2018-11-03T03:54:28.707Z,11.55
2018-11-03T03:56:56.301Z,12.70
2018-11-03T03:59:23.876Z,11.70
2018-11-03T04:01:51.463Z,11.65
2018-11-03T04:04:19.082Z,12.25
2018-11-03T04:06:46.667Z,12.13
2018-11-03T04:09:14.237Z,11.70
2018-11-03T04:11:41.849Z,13.50
2018-11-03T04:14:09.439Z,13.85
2018-11-03T04:16:37.034Z,13.95
2018-11-03T04:19:04.828Z,13.32
2018-11-03T04:21:32.359Z,14.23
2018-11-03T04:23:59.910Z,13.13
2018-11-03T04:26:28.833Z,12.25
2018-11-03T04:28:56.895Z,12.20
2018-11-03T04:31:24.633Z,12.40
2018-11-03T04:33:52.181Z,12.50
2018-11-03T04:36:19.736Z,12.80
2018-11-03T04:38:47.281Z,12.60
2018-11-03T04:41:14.867Z,13.32
2018-11-03T04:43:42.484Z,12.53
2018-11-03T04:46:10.077Z,13.83
2018-11-03T04:48:38.195Z,13.05
2018-11-03T04:51:05.984Z,12.50
2018-11-03T04:53:33.540Z,13.35
2018-11-03T04:56:01.167Z,12.55
2018-11-03T04:58:28.761Z,11.80
2018-11-03T05:00:56.301Z,11.88
2018-11-03T05:03:23.898Z,11.85
2018-11-03T05:05:51.436Z,11.33
2018-11-03T05:08:18.985Z,10.08
2018-11-03T05:10:46.564Z,12.25
2018-11-03T05:13:14.080Z,10.80
2018-11-03T05:15:41.648Z,10.90
2018-11-03T05:18:09.232Z,12.43
2018-11-03T05:20:36.836Z,12.30
2018-11-03T05:23:04.821Z,10.95
2018-11-03T05:25:32.471Z,11.35
2018-11-03T05:28:00.095Z,12.55
2018-11-03T05:30:27.639Z,11.80
2018-11-03T05:32:55.150Z,11.40
2018-11-03T05:35:22.750Z,11.10
2018-11-03T05:37:50.381Z,12.07
2018-11-03T05:40:17.972Z,11.95
2018-11-03T05:42:45.513Z,12.23
2018-11-03T05:45:13.104Z,11.53
2018-11-03T05:47:40.722Z,11.70
2018-11-03T05:50:09.722Z,11.93
2018-11-03T05:52:37.344Z,12.43
2018-11-03T05:55:06.119Z,11.50
2018-11-03T05:57:33.728Z,11.48
2018-11-03T06:00:01.394Z,11.90
2018-11-03T06:02:28.964Z,11.78
2018-11-03T06:04:57.175Z,13.35
2018-11-03T06:07:25.210Z,12.70
2018-11-03T06:09:52.734Z,12.00
2018-11-03T06:12:20.308Z,13.68
2018-11-03T06:14:47.905Z,13.03
2018-11-03T06:17:15.430Z,13.62
2018-11-03T06:19:43.060Z,14.47
2018-11-03T06:22:10.701Z,13.40
2018-11-03T06:24:38.314Z,12.28
2018-11-03T06:27:05.986Z,14.25
2018-11-03T06:29:33.558Z,13.45
2018-11-03T06:32:01.151Z,13.95
2018-11-03T06:34:29.357Z,15.10
2018-11-03T06:36:56.955Z,13.95
2018-11-03T06:39:24.550Z,15.03
2018-11-03T06:41:52.178Z,15.03
2018-11-03T06:44:19.783Z,14.75
2018-11-03T06:46:47.570Z,13.90
2018-11-03T06:49:18.961Z,14.20
2018-11-03T06:51:46.589Z,14.13
2018-11-03T06:54:14.206Z,14.40
2018-11-03T06:56:41.753Z,14.80
2018-11-03T06:59:09.803Z,15.35
2018-11-03T07:01:37.430Z,14.83
2018-11-03T07:04:05.528Z,15.58
2018-11-03T07:06:33.857Z,14.85
2018-11-03T07:09:01.547Z,14.63
2018-11-03T07:11:29.189Z,15.58
2018-11-03T07:13:56.681Z,14.55
2018-11-03T07:16:24.306Z,13.58
2018-11-03T07:18:51.969Z,14.85
2018-11-03T07:21:19.625Z,14.78
2018-11-03T07:23:47.220Z,15.00
2018-11-03T07:26:14.791Z,14.63
2018-11-03T07:28:42.520Z,14.98
2018-11-03T07:31:10.114Z,15.90
2018-11-03T07:33:37.736Z,13.45
2018-11-03T07:36:05.376Z,15.00
2018-11-03T07:38:32.998Z,14.85
2018-11-03T07:41:00.628Z,14.93
2018-11-03T07:43:28.276Z,13.75
2018-11-03T07:45:55.882Z,14.13
2018-11-03T07:48:23.726Z,14.15
2018-11-03T07:50:51.258Z,13.75
2018-11-03T07:53:18.827Z,13.83
2018-11-03T07:55:46.400Z,13.78
2018-11-03T07:58:14.012Z,13.60
2018-11-03T08:00:41.807Z,13.72
2018-11-03T08:03:09.359Z,13.22
2018-11-03T08:05:36.985Z,14.20
2018-11-03T08:08:05.774Z,13.50
2018-11-03T08:10:35.071Z,13.65
2018-11-03T08:13:04.990Z,14.50
2018-11-03T08:15:32.621Z,14.25
2018-11-03T08:18:00.184Z,12.90
2018-11-03T08:20:27.871Z,12.93
2018-11-03T08:22:55.561Z,13.75
2018-11-03T08:25:23.134Z,13.65
2018-11-03T08:27:50.778Z,15.15
2018-11-03T08:30:18.422Z,14.53
2018-11-03T08:32:46.100Z,13.60
2018-11-03T08:35:13.739Z,12.65
2018-11-03T08:37:41.428Z,12.85
2018-11-03T08:40:10.728Z,14.03
2018-11-03T08:42:39.327Z,13.75
2018-11-03T08:45:07.495Z,13.30
2018-11-03T08:47:35.283Z,13.78
2018-11-03T08:50:03.063Z,13.60
2018-11-03T08:52:30.660Z,13.22
2018-11-03T08:54:58.250Z,13.13
2018-11-03T08:57:25.877Z,12.78
2018-11-03T08:59:53.684Z,14.68
2018-11-03T09:02:21.183Z,13.50
2018-11-03T09:04:48.885Z,13.60
2018-11-03T09:07:16.563Z,14.00
2018-11-03T09:09:44.271Z,13.40
2018-11-03T09:12:11.910Z,14.13
2018-11-03T09:14:39.612Z,14.55
2018-11-03T09:17:07.199Z,13.53
2018-11-03T09:19:34.823Z,14.30
2018-11-03T09:22:02.515Z,20.77
2018-11-03T09:24:30.131Z,17.85
2018-11-03T09:26:57.764Z,16.77
2018-11-03T09:29:25.364Z,14.23
2018-11-03T09:31:53.196Z,14.87
2018-11-03T09:34:20.836Z,12.98
2018-11-03T09:36:48.442Z,14.90
2018-11-03T09:39:16.289Z,14.65
2018-11-03T09:41:43.899Z,14.87
2018-11-03T09:44:11.558Z,15.78
2018-11-03T09:46:39.231Z,15.75
2018-11-03T09:49:07.849Z,16.05
2018-11-03T09:51:35.478Z,15.38
2018-11-03T09:54:03.114Z,16.87
2018-11-03T09:56:31.621Z,14.85
2018-11-03T09:58:59.158Z,15.05
2018-11-03T10:01:26.937Z,16.75
2018-11-03T10:03:54.601Z,17.10
2018-11-03T10:06:22.167Z,17.00
2018-11-03T10:08:49.863Z,16.55
2018-11-03T10:11:17.528Z,16.07
2018-11-03T10:13:45.186Z,16.25
2018-11-03T10:16:12.830Z,16.90
2018-11-03T10:18:40.519Z,16.15
2018-11-03T10:21:08.168Z,16.00
2018-11-03T10:23:35.799Z,17.87
2018-11-03T10:26:03.509Z,17.82
2018-11-03T10:28:31.246Z,17.57
2018-11-03T10:30:58.684Z,18.23
2018-11-03T10:33:26.342Z,18.42
2018-11-03T10:35:53.948Z,19.37
2018-11-03T10:38:21.570Z,19.15
2018-11-03T10:40:49.195Z,18.50
2018-11-03T10:43:16.909Z,18.57
2018-11-03T10:45:44.566Z,18.80
2018-11-03T10:48:12.152Z,17.55
2018-11-03T10:50:40.087Z,17.82
2018-11-03T10:53:07.788Z,17.90
2018-11-03T10:55:35.416Z,18.10
2018-11-03T10:58:03.836Z,18.55
2018-11-03T11:00:37.038Z,17.87
2018-11-03T11:03:10.132Z,18.65
2018-11-03T11:05:43.200Z,19.10
2018-11-03T11:08:16.479Z,19.90
2018-11-03T11:10:49.724Z,18.32
2018-11-03T11:13:19.554Z,19.17
2018-11-03T11:15:47.520Z,20.00
2018-11-03T11:18:15.228Z,19.75
2018-11-03T11:20:43.123Z,19.23
2018-11-03T11:23:10.754Z,17.62
2018-11-03T11:25:38.387Z,20.05
2018-11-03T11:28:06.164Z,19.35
2018-11-03T11:30:40.323Z,18.45
2018-11-03T11:33:09.716Z,17.45
2018-11-03T11:35:37.375Z,18.82
2018-11-03T11:38:05.847Z,17.87
2018-11-03T11:40:33.820Z,19.23
2018-11-03T11:43:01.433Z,17.48
2018-11-03T11:45:29.151Z,18.20
2018-11-03T11:47:56.758Z,18.30
2018-11-03T11:50:24.387Z,18.12
2018-11-03T11:52:52.066Z,17.40
2018-11-03T11:55:19.801Z,16.52
2018-11-03T11:57:47.954Z,20.40
2018-11-03T12:00:15.608Z,19.00
2018-11-03T12:02:43.231Z,18.45
2018-11-03T12:05:10.932Z,18.57
2018-11-03T12:07:38.645Z,18.17
2018-11-03T12:10:06.410Z,18.12
2018-11-03T12:12:34.029Z,18.25
2018-11-03T12:15:01.698Z,19.45
2018-11-03T12:17:29.387Z,18.27
2018-11-03T12:19:57.048Z,18.98
2018-11-03T12:22:24.772Z,19.32
2018-11-03T12:24:52.590Z,19.25
2018-11-03T12:27:20.268Z,18.85
2018-11-03T12:29:47.962Z,17.82
2018-11-03T12:32:16.367Z,19.02
2018-11-03T12:34:44.074Z,19.05
2018-11-03T12:37:11.701Z,19.05
2018-11-03T12:39:39.446Z,19.40
2018-11-03T12:42:07.164Z,19.82
2018-11-03T12:44:34.941Z,19.48
2018-11-03T12:47:02.655Z,19.35
2018-11-03T12:49:30.305Z,18.73
2018-11-03T12:51:57.974Z,17.23
2018-11-03T12:54:25.575Z,17.17
2018-11-03T12:56:53.212Z,20.02
2018-11-03T12:59:21.004Z,18.35
2018-11-03T13:01:48.712Z,16.90
2018-11-03T13:04:16.258Z,17.52
2018-11-03T13:06:43.916Z,18.33
2018-11-03T13:09:11.632Z,18.23
2018-11-03T13:11:39.650Z,16.70
2018-11-03T13:14:07.545Z,16.87
2018-11-03T13:16:35.168Z,16.30
2018-11-03T13:19:02.931Z,16.90
2018-11-03T13:21:30.612Z,17.07
2018-11-03T13:23:58.272Z,16.83
2018-11-03T13:26:25.939Z,16.70
2018-11-03T13:28:53.678Z,17.00
2018-11-03T13:31:21.318Z,18.33
2018-11-03T13:33:48.987Z,16.37
2018-11-03T13:36:16.607Z,16.20
2018-11-03T13:38:44.210Z,16.93
2018-11-03T13:41:11.933Z,15.38
2018-11-03T13:43:39.556Z,16.30
2018-11-03T13:46:07.284Z,16.60
2018-11-03T13:48:34.920Z,15.90
2018-11-03T13:51:02.636Z,16.75
2018-11-03T13:53:30.252Z,17.77
2018-11-03T13:55:57.962Z,18.57
2018-11-03T13:58:25.576Z,19.37
2018-11-03T14:00:53.287Z,18.95
2018-11-03T14:03:21.070Z,20.40
2018-11-03T14:05:48.740Z,18.20
2018-11-03T14:08:16.368Z,18.60
2018-11-03T14:10:43.956Z,19.02
2018-11-03T14:13:11.729Z,19.80
2018-11-03T14:15:39.403Z,20.40
2018-11-03T14:18:06.959Z,22.75
2018-11-03T14:20:34.623Z,21.70
2018-11-03T14:23:02.299Z,22.80
2018-11-03T14:25:29.904Z,21.60
2018-11-03T14:27:57.670Z,22.22
2018-11-03T14:30:25.316Z,21.95
2018-11-03T14:32:52.954Z,23.45
2018-11-03T14:35:20.561Z,22.37
2018-11-03T14:37:48.225Z,24.57
2018-11-03T14:40:16.537Z,21.68
2018-11-03T14:42:44.885Z,23.55
2018-11-03T14:45:13.387Z,23.85
2018-11-03T14:47:41.227Z,22.70
2018-11-03T14:50:09.196Z,22.17
2018-11-03T14:52:37.977Z,22.22
2018-11-03T14:55:07.072Z,21.57
2018-11-03T14:57:34.886Z,25.10
2018-11-03T15:00:03.298Z,22.02
2018-11-03T15:02:31.084Z,22.00
2018-11-03T15:04:58.773Z,20.90
2018-11-03T15:07:26.543Z,21.73
2018-11-03T15:09:54.257Z,22.22
2018-11-03T15:12:21.876Z,22.07
2018-11-03T15:14:49.541Z,22.62
2018-11-03T15:17:17.193Z,21.00
2018-11-03T15:19:44.931Z,21.20
2018-11-03T15:22:12.568Z,21.95
2018-11-03T15:24:40.205Z,20.65
2018-11-03T15:27:07.815Z,22.95
2018-11-03T15:29:35.485Z,19.32
2018-11-03T15:32:03.160Z,19.35
2018-11-03T15:34:30.801Z,19.80
2018-11-03T15:36:58.455Z,18.98
2018-11-03T15:39:26.049Z,19.40
2018-11-03T15:41:53.689Z,18.07
2018-11-03T15:44:21.400Z,19.25
2018-11-03T15:46:49.088Z,17.77
2018-11-03T15:49:16.719Z,18.57
2018-11-03T15:51:44.289Z,18.90
2018-11-03T15:54:11.928Z,22.45
2018-11-03T15:56:39.556Z,20.88
2018-11-03T15:59:07.146Z,17.87
2018-11-03T16:01:34.751Z,17.45
2018-11-03T16:04:02.400Z,15.55
2018-11-03T16:06:30.012Z,18.15
2018-11-03T16:08:57.611Z,17.50
2018-11-03T16:11:25.195Z,17.60
2018-11-03T16:13:52.763Z,19.70
2018-11-03T16:16:20.383Z,24.63
2018-11-03T16:18:48.008Z,27.37
2018-11-03T16:21:15.624Z,30.08
2018-11-03T16:23:43.280Z,20.12
2018-11-03T16:26:10.928Z,16.82
2018-11-03T16:28:38.779Z,16.70
2018-11-03T16:31:06.394Z,17.25
2018-11-03T16:33:34.089Z,16.35
2018-11-03T16:36:01.760Z,19.05
2018-11-03T16:38:29.562Z,54.20
2018-11-03T16:40:57.159Z,24.35
2018-11-03T16:43:24.746Z,66.00
2018-11-03T16:45:52.508Z,93.82
2018-11-03T16:48:20.072Z,34.33
2018-11-03T16:50:47.719Z,18.50
2018-11-03T16:53:15.314Z,17.80
2018-11-03T16:55:42.988Z,15.20
2018-11-03T16:58:10.613Z,15.23
2018-11-03T17:00:38.447Z,15.15
2018-11-03T17:03:06.281Z,16.55
2018-11-03T17:05:34.010Z,16.25
2018-11-03T17:08:01.715Z,16.95
2018-11-03T17:10:29.332Z,15.25
2018-11-03T17:12:57.105Z,15.20
2018-11-03T17:15:24.826Z,15.55
2018-11-03T17:17:52.777Z,15.63
2018-11-03T17:20:20.538Z,16.45
2018-11-03T17:22:48.270Z,15.28
2018-11-03T17:25:16.129Z,16.27
2018-11-03T17:27:43.724Z,14.33
2018-11-03T17:30:13.233Z,16.65
2018-11-03T17:32:41.003Z,16.10
2018-11-03T17:35:08.747Z,15.20
2018-11-03T17:37:36.485Z,17.42
2018-11-03T17:40:05.328Z,17.85
2018-11-03T17:42:32.943Z,15.60
2018-11-03T17:45:00.550Z,16.32
2018-11-03T17:47:28.155Z,17.02
2018-11-03T17:49:55.818Z,15.93
2018-11-03T17:52:23.524Z,16.17
2018-11-03T17:54:51.274Z,15.03
2018-11-03T17:57:18.903Z,16.70
2018-11-03T17:59:46.492Z,18.07
2018-11-03T18:02:14.082Z,17.62
2018-11-03T18:04:41.733Z,16.30
2018-11-03T18:07:09.358Z,16.70
2018-11-03T18:09:36.961Z,15.80
2018-11-03T18:12:04.710Z,17.42
2018-11-03T18:14:32.335Z,17.20
2018-11-03T18:16:59.990Z,18.27
2018-11-03T18:19:27.657Z,16.07
2018-11-03T18:21:55.366Z,15.95
2018-11-03T18:24:22.963Z,16.73
2018-11-03T18:26:50.645Z,16.52
2018-11-03T18:29:18.315Z,18.35
2018-11-03T18:31:46.045Z,17.70
2018-11-03T18:34:13.722Z,17.37
2018-11-03T18:36:41.384Z,17.48
2018-11-03T18:39:10.059Z,19.07
2018-11-03T18:41:37.995Z,18.40
2018-11-03T18:44:05.866Z,16.93
2018-11-03T18:46:33.701Z,16.75
2018-11-03T18:49:01.299Z,19.32
2018-11-03T18:51:29.015Z,18.90
2018-11-03T18:53:56.777Z,19.30
2018-11-03T18:56:24.517Z,20.65
2018-11-03T18:58:52.296Z,18.87
2018-11-03T19:01:19.961Z,19.37
2018-11-03T19:03:47.591Z,19.50
2018-11-03T19:06:15.277Z,19.10
2018-11-03T19:08:42.993Z,18.48
2018-11-03T19:11:10.736Z,16.75
2018-11-03T19:13:38.920Z,18.70
2018-11-03T19:16:07.732Z,18.55
2018-11-03T19:18:36.266Z,19.17
2018-11-03T19:21:04.528Z,19.07
2018-11-03T19:23:32.695Z,20.00
2018-11-03T19:26:00.773Z,19.52
2018-11-03T19:28:28.928Z,18.73
2018-11-03T19:30:56.951Z,19.62
2018-11-03T19:33:25.510Z,18.50
2018-11-03T19:35:53.565Z,18.62
2018-11-03T19:38:21.532Z,19.07
2018-11-03T19:40:49.668Z,28.12
2018-11-03T19:43:17.597Z,19.98
2018-11-03T19:45:45.610Z,20.02
2018-11-03T19:48:13.856Z,20.15
2018-11-03T19:50:41.926Z,19.60
2018-11-03T19:53:09.837Z,20.88
2018-11-03T19:55:37.893Z,17.80
2018-11-03T19:58:05.853Z,18.23
2018-11-03T20:00:33.705Z,18.85
2018-11-03T20:03:01.513Z,17.75
2018-11-03T20:05:29.059Z,18.30
2018-11-03T20:07:56.699Z,18.15
2018-11-03T20:10:24.351Z,17.77
2018-11-03T20:12:52.045Z,17.50
2018-11-03T20:15:19.777Z,19.40
2018-11-03T20:17:47.717Z,17.80
2018-11-03T20:20:15.365Z,20.00
2018-11-03T20:22:43.170Z,18.37
2018-11-03T20:25:11.747Z,19.15
2018-11-03T20:27:39.552Z,19.45
2018-11-03T20:30:09.541Z,19.20
2018-11-03T20:32:37.248Z,19.17
2018-11-03T20:35:05.467Z,19.62
2018-11-03T20:37:33.148Z,19.32
2018-11-03T20:40:00.833Z,19.17
2018-11-03T20:42:28.552Z,20.27
2018-11-03T20:44:57.082Z,20.68
2018-11-03T20:47:24.748Z,19.75
2018-11-03T20:49:52.972Z,21.68
2018-11-03T20:52:20.707Z,23.00
2018-11-03T20:54:48.414Z,21.65
2018-11-03T20:57:16.158Z,20.02
2018-11-03T20:59:43.997Z,21.40
2018-11-03T21:02:18.601Z,19.87
2018-11-03T21:04:46.379Z,21.02
2018-11-03T21:07:14.070Z,24.85
2018-11-03T21:09:42.105Z,26.07
2018-11-03T21:12:10.019Z,23.38
2018-11-03T21:14:37.736Z,21.55
2018-11-03T21:17:05.612Z,19.17
2018-11-03T21:19:33.272Z,22.15
2018-11-03T21:22:01.073Z,21.93
2018-11-03T21:24:28.840Z,21.05
2018-11-03T21:26:56.911Z,23.38
2018-11-03T21:29:24.706Z,21.33
2018-11-03T21:31:52.263Z,21.42
2018-11-03T21:34:19.964Z,22.80
2018-11-03T21:36:47.596Z,22.58
2018-11-03T21:39:15.252Z,22.37
2018-11-03T21:41:42.957Z,21.23
2018-11-03T21:44:10.614Z,21.25
2018-11-03T21:46:38.423Z,22.27
2018-11-03T21:49:06.046Z,21.35
2018-11-03T21:51:33.700Z,21.55
2018-11-03T21:54:01.492Z,19.10
2018-11-03T21:56:29.141Z,21.68
2018-11-03T21:58:56.855Z,22.10
2018-11-03T22:01:24.563Z,22.02
2018-11-03T22:03:52.184Z,22.50
2018-11-03T22:06:19.986Z,21.52
2018-11-03T22:08:47.578Z,21.93
2018-11-03T22:11:15.211Z,21.95
2018-11-03T22:13:42.977Z,22.95
2018-11-03T22:16:10.656Z,23.32
2018-11-03T22:18:38.273Z,23.27
2018-11-03T22:21:05.908Z,23.57
2018-11-03T22:23:33.483Z,23.25
2018-11-03T22:26:01.122Z,22.95
2018-11-03T22:28:28.759Z,24.00
2018-11-03T22:30:56.413Z,23.67
2018-11-03T22:33:24.030Z,23.18
2018-11-03T22:35:51.854Z,24.85
2018-11-03T22:38:19.551Z,24.77
2018-11-03T22:40:47.195Z,24.20
2018-11-03T22:43:14.880Z,22.90
2018-11-03T22:45:42.505Z,23.73
2018-11-03T22:48:10.115Z,23.00
2018-11-03T22:50:37.729Z,25.50
2018-11-03T22:53:05.377Z,23.85
2018-11-03T22:55:33.042Z,23.98
2018-11-03T22:58:00.667Z,25.32
2018-11-03T23:00:28.419Z,25.43
2018-11-03T23:02:56.009Z,24.32
2018-11-03T23:05:23.691Z,23.20
2018-11-03T23:07:51.422Z,24.95
2018-11-03T23:10:18.986Z,23.07
2018-11-03T23:12:46.637Z,24.40
2018-11-03T23:15:14.189Z,22.67
2018-11-03T23:17:41.785Z,26.27
2018-11-03T23:20:11.752Z,22.77
2018-11-03T23:22:39.525Z,24.85
2018-11-03T23:25:07.798Z,23.27
2018-11-03T23:27:35.488Z,23.87
2018-11-03T23:30:04.021Z,25.17
2018-11-03T23:32:31.384Z,24.55
2018-11-03T23:34:58.971Z,23.20
2018-11-03T23:37:26.552Z,23.92
2018-11-03T23:39:54.171Z,24.20
2018-11-03T23:42:21.732Z,22.60
2018-11-03T23:44:49.453Z,24.23
2018-11-03T23:47:17.002Z,24.15
2018-11-03T23:49:44.555Z,24.90
2018-11-03T23:52:12.221Z,22.95
2018-11-03T23:54:39.785Z,24.30
2018-11-03T23:57:07.426Z,23.22
2018-11-03T23:59:35.040Z,24.70
